Fairmont, WV (26554)

8:51 AM EDT on July 27, 2016 (GMT -0400)
N8TJD's WX Station. Stony Rd/Pinchgut Hollow. | | Change Station

Elev 1283 ft 39.46 °N, 80.12 °W | Updated 14 seconds ago

Overcast
Overcast
77.7 °F
Feels Like 80 °F
N
0.0
Wind Variable Wind from West
Gusts 0.0 mph

Today
High -- | Low -- °F
--% Chance of Precip.
Yesterday
High -- | Low -- °F
Precip. -- in
Pressure 30.05 in
Visibility 1.5 miles
Clouds Overcast 300 ft
Heat Index 80 °F
Dew Point 76 °F
Humidity 94%
Rainfall 0.00 in
Snow Depth Not available.
6:16 AM 8:37 PM
Last Quarter, 43% visible
SPECI KCKB 271228Z 00000KT 1 1/2SM BR OVC003 22/22 A3005 RMK AO2 T02220217
Pressure 30.05 in
Visibility 1.5 miles
Clouds Overcast 300 ft
Heat Index 80 °F
Dew Point 76 °F
Humidity 94%
Rainfall 0.00 in
Snow Depth Not available.
6:16 AM 8:37 PM
Last Quarter, 43% visible
SPECI KCKB 271228Z 00000KT 1 1/2SM BR OVC003 22/22 A3005 RMK AO2 T02220217

10-Day Weather Forecast

Almanac

Astronomy

Jul. 27, 2016 Rise Set
Actual Time
Civil Twilight
Nautical Twilight
Astronomical Twilight
Moon
Length of Visible Light
Length of Day
Tomorrow will be .
, % of the Moon is Illuminated

Today's Extremes

State Highs State Lows

Community

WunderPhotos

Upload Photos

1,927,841 photos uploaded!

WunderBlog® & News

Nearby

Air Quality

  Air Quality AQ Index Pollutant
Not available.

Snow Depth

Station Depth Elevation

Earthquake Activity

City Distance Mag. Time & Date
Minimum magnitude displayed is 2.5.

Coastal Water Temperatures

Place Temperature

Stations

Nearby Weather Stations

Station Location Temp. Windchill Dew Point Humidity Wind Precip. Elev Updated Type
                   

Watches & Warnings

There are currently no watches in effect.